sensor_id;sensor_type;location;lat;lon;timestamp;P1;durP1;ratioP1;P2;durP2;ratioP2
46651;SDS011;32377;52.182;5.398;2023-11-21T00:00:54;46.80;;;21.52;;
46651;SDS011;32377;52.182;5.398;2023-11-21T00:03:20;57.83;;;23.40;;
46651;SDS011;32377;52.182;5.398;2023-11-21T00:05:48;41.50;;;20.65;;
46651;SDS011;32377;52.182;5.398;2023-11-21T00:08:14;38.67;;;18.85;;
46651;SDS011;32377;52.182;5.398;2023-11-21T00:10:39;51.08;;;20.75;;
46651;SDS011;32377;52.182;5.398;2023-11-21T00:13:05;43.20;;;20.98;;
46651;SDS011;32377;52.182;5.398;2023-11-21T00:15:31;50.33;;;19.55;;
46651;SDS011;32377;52.182;5.398;2023-11-21T00:17:56;49.65;;;20.33;;
46651;SDS011;32377;52.182;5.398;2023-11-21T00:20:22;47.45;;;21.42;;
46651;SDS011;32377;52.182;5.398;2023-11-21T00:22:47;50.78;;;20.90;;
46651;SDS011;32377;52.182;5.398;2023-11-21T00:25:13;35.67;;;18.25;;
46651;SDS011;32377;52.182;5.398;2023-11-21T00:27:40;44.28;;;18.92;;
46651;SDS011;32377;52.182;5.398;2023-11-21T00:30:06;46.35;;;19.83;;
46651;SDS011;32377;52.182;5.398;2023-11-21T00:32:34;41.88;;;18.60;;
46651;SDS011;32377;52.182;5.398;2023-11-21T00:35:00;48.28;;;21.40;;
46651;SDS011;32377;52.182;5.398;2023-11-21T00:37:26;43.72;;;19.15;;
46651;SDS011;32377;52.182;5.398;2023-11-21T00:39:52;47.25;;;19.63;;
46651;SDS011;32377;52.182;5.398;2023-11-21T00:42:17;41.72;;;19.58;;
46651;SDS011;32377;52.182;5.398;2023-11-21T00:44:43;40.30;;;17.30;;
46651;SDS011;32377;52.182;5.398;2023-11-21T00:47:08;43.50;;;19.33;;
46651;SDS011;32377;52.182;5.398;2023-11-21T00:49:34;37.08;;;17.02;;
46651;SDS011;32377;52.182;5.398;2023-11-21T00:52:00;38.95;;;17.10;;
46651;SDS011;32377;52.182;5.398;2023-11-21T00:54:26;35.67;;;16.95;;
46651;SDS011;32377;52.182;5.398;2023-11-21T00:56:52;32.17;;;17.15;;
46651;SDS011;32377;52.182;5.398;2023-11-21T00:59:17;37.67;;;17.33;;
46651;SDS011;32377;52.182;5.398;2023-11-21T01:01:43;35.42;;;16.55;;
46651;SDS011;32377;52.182;5.398;2023-11-21T01:04:09;40.28;;;17.92;;
46651;SDS011;32377;52.182;5.398;2023-11-21T01:06:35;33.67;;;18.75;;
46651;SDS011;32377;52.182;5.398;2023-11-21T01:09:00;41.63;;;16.92;;
46651;SDS011;32377;52.182;5.398;2023-11-21T01:11:26;40.75;;;18.67;;
46651;SDS011;32377;52.182;5.398;2023-11-21T01:13:52;43.40;;;18.67;;
46651;SDS011;32377;52.182;5.398;2023-11-21T01:16:18;37.03;;;16.98;;
46651;SDS011;32377;52.182;5.398;2023-11-21T01:18:44;38.28;;;17.73;;
46651;SDS011;32377;52.182;5.398;2023-11-21T01:21:09;35.60;;;17.30;;
46651;SDS011;32377;52.182;5.398;2023-11-21T01:23:35;38.03;;;16.95;;
46651;SDS011;32377;52.182;5.398;2023-11-21T01:26:00;34.22;;;17.38;;
46651;SDS011;32377;52.182;5.398;2023-11-21T01:28:26;40.03;;;17.95;;
46651;SDS011;32377;52.182;5.398;2023-11-21T01:30:52;34.92;;;17.23;;
46651;SDS011;32377;52.182;5.398;2023-11-21T01:33:21;38.63;;;19.50;;
46651;SDS011;32377;52.182;5.398;2023-11-21T01:35:47;42.15;;;19.55;;
46651;SDS011;32377;52.182;5.398;2023-11-21T01:38:13;56.95;;;19.73;;
46651;SDS011;32377;52.182;5.398;2023-11-21T01:40:40;42.80;;;18.73;;
46651;SDS011;32377;52.182;5.398;2023-11-21T01:43:05;47.40;;;19.75;;
46651;SDS011;32377;52.182;5.398;2023-11-21T01:45:31;33.03;;;17.95;;
46651;SDS011;32377;52.182;5.398;2023-11-21T01:47:58;38.63;;;18.30;;
46651;SDS011;32377;52.182;5.398;2023-11-21T01:50:25;42.63;;;18.80;;
46651;SDS011;32377;52.182;5.398;2023-11-21T01:52:51;37.60;;;18.83;;
46651;SDS011;32377;52.182;5.398;2023-11-21T01:55:17;41.17;;;18.58;;
46651;SDS011;32377;52.182;5.398;2023-11-21T01:57:44;34.50;;;16.80;;
46651;SDS011;32377;52.182;5.398;2023-11-21T02:00:11;38.47;;;17.63;;
46651;SDS011;32377;52.182;5.398;2023-11-21T02:02:42;44.80;;;17.98;;
46651;SDS011;32377;52.182;5.398;2023-11-21T02:05:09;36.08;;;16.85;;
46651;SDS011;32377;52.182;5.398;2023-11-21T02:07:39;38.50;;;17.35;;
46651;SDS011;32377;52.182;5.398;2023-11-21T02:10:05;35.15;;;17.30;;
46651;SDS011;32377;52.182;5.398;2023-11-21T02:12:32;41.08;;;17.98;;
46651;SDS011;32377;52.182;5.398;2023-11-21T02:15:00;32.85;;;15.70;;
46651;SDS011;32377;52.182;5.398;2023-11-21T02:17:34;32.40;;;14.82;;
46651;SDS011;32377;52.182;5.398;2023-11-21T02:20:03;32.45;;;15.55;;
46651;SDS011;32377;52.182;5.398;2023-11-21T02:22:31;30.90;;;15.77;;
46651;SDS011;32377;52.182;5.398;2023-11-21T02:25:02;34.65;;;15.05;;
46651;SDS011;32377;52.182;5.398;2023-11-21T02:27:29;37.83;;;16.17;;
46651;SDS011;32377;52.182;5.398;2023-11-21T02:29:54;42.45;;;15.80;;
46651;SDS011;32377;52.182;5.398;2023-11-21T02:32:20;35.00;;;14.55;;
46651;SDS011;32377;52.182;5.398;2023-11-21T02:34:47;35.58;;;14.38;;
46651;SDS011;32377;52.182;5.398;2023-11-21T02:37:13;29.60;;;14.15;;
46651;SDS011;32377;52.182;5.398;2023-11-21T02:39:39;33.67;;;15.02;;
46651;SDS011;32377;52.182;5.398;2023-11-21T02:42:04;25.20;;;13.27;;
46651;SDS011;32377;52.182;5.398;2023-11-21T02:44:30;32.15;;;14.38;;
46651;SDS011;32377;52.182;5.398;2023-11-21T02:46:56;35.25;;;14.32;;
46651;SDS011;32377;52.182;5.398;2023-11-21T02:49:22;31.00;;;13.25;;
46651;SDS011;32377;52.182;5.398;2023-11-21T02:51:48;30.80;;;13.30;;
46651;SDS011;32377;52.182;5.398;2023-11-21T02:54:14;34.15;;;13.52;;
46651;SDS011;32377;52.182;5.398;2023-11-21T02:56:39;33.50;;;13.48;;
46651;SDS011;32377;52.182;5.398;2023-11-21T02:59:05;35.13;;;13.55;;
46651;SDS011;32377;52.182;5.398;2023-11-21T03:01:30;32.95;;;12.70;;
46651;SDS011;32377;52.182;5.398;2023-11-21T03:03:56;27.33;;;13.18;;
46651;SDS011;32377;52.182;5.398;2023-11-21T03:06:22;30.23;;;13.23;;
46651;SDS011;32377;52.182;5.398;2023-11-21T03:08:48;32.53;;;13.30;;
46651;SDS011;32377;52.182;5.398;2023-11-21T03:11:14;33.30;;;13.18;;
46651;SDS011;32377;52.182;5.398;2023-11-21T03:13:40;27.30;;;13.20;;
46651;SDS011;32377;52.182;5.398;2023-11-21T03:16:09;30.85;;;12.70;;
46651;SDS011;32377;52.182;5.398;2023-11-21T03:18:35;30.02;;;12.02;;
46651;SDS011;32377;52.182;5.398;2023-11-21T03:21:04;25.70;;;12.02;;
46651;SDS011;32377;52.182;5.398;2023-11-21T03:23:32;34.55;;;12.02;;
46651;SDS011;32377;52.182;5.398;2023-11-21T03:25:58;32.03;;;12.48;;
46651;SDS011;32377;52.182;5.398;2023-11-21T03:28:24;26.38;;;12.32;;
46651;SDS011;32377;52.182;5.398;2023-11-21T03:30:51;25.63;;;11.98;;
46651;SDS011;32377;52.182;5.398;2023-11-21T03:33:17;31.00;;;10.73;;
46651;SDS011;32377;52.182;5.398;2023-11-21T03:35:42;28.98;;;11.98;;
46651;SDS011;32377;52.182;5.398;2023-11-21T03:38:09;28.35;;;11.52;;
46651;SDS011;32377;52.182;5.398;2023-11-21T03:40:35;35.25;;;12.27;;
46651;SDS011;32377;52.182;5.398;2023-11-21T03:43:01;32.42;;;11.95;;
46651;SDS011;32377;52.182;5.398;2023-11-21T03:45:26;35.33;;;13.38;;
46651;SDS011;32377;52.182;5.398;2023-11-21T03:47:52;29.92;;;13.05;;
46651;SDS011;32377;52.182;5.398;2023-11-21T03:50:18;24.55;;;12.13;;
46651;SDS011;32377;52.182;5.398;2023-11-21T03:52:43;29.08;;;12.57;;
46651;SDS011;32377;52.182;5.398;2023-11-21T03:55:09;34.42;;;13.60;;
46651;SDS011;32377;52.182;5.398;2023-11-21T03:57:35;26.63;;;12.10;;
46651;SDS011;32377;52.182;5.398;2023-11-21T04:00:01;34.50;;;14.23;;
46651;SDS011;32377;52.182;5.398;2023-11-21T04:02:29;31.00;;;12.68;;
46651;SDS011;32377;52.182;5.398;2023-11-21T04:04:56;27.05;;;11.48;;
46651;SDS011;32377;52.182;5.398;2023-11-21T04:07:22;35.75;;;13.13;;
46651;SDS011;32377;52.182;5.398;2023-11-21T04:09:47;30.83;;;14.25;;
46651;SDS011;32377;52.182;5.398;2023-11-21T04:12:13;32.35;;;12.45;;
46651;SDS011;32377;52.182;5.398;2023-11-21T04:14:39;35.03;;;13.68;;
46651;SDS011;32377;52.182;5.398;2023-11-21T04:17:04;30.20;;;14.27;;
46651;SDS011;32377;52.182;5.398;2023-11-21T04:19:30;36.42;;;13.25;;
46651;SDS011;32377;52.182;5.398;2023-11-21T04:21:56;32.20;;;14.07;;
46651;SDS011;32377;52.182;5.398;2023-11-21T04:24:21;36.10;;;13.63;;
46651;SDS011;32377;52.182;5.398;2023-11-21T04:26:47;42.92;;;14.98;;
46651;SDS011;32377;52.182;5.398;2023-11-21T04:29:12;42.20;;;15.00;;
46651;SDS011;32377;52.182;5.398;2023-11-21T04:31:38;33.10;;;14.35;;
46651;SDS011;32377;52.182;5.398;2023-11-21T04:34:04;29.52;;;13.93;;
46651;SDS011;32377;52.182;5.398;2023-11-21T04:36:30;29.25;;;14.25;;
46651;SDS011;32377;52.182;5.398;2023-11-21T04:38:56;34.20;;;15.40;;
46651;SDS011;32377;52.182;5.398;2023-11-21T04:41:21;33.58;;;14.98;;
46651;SDS011;32377;52.182;5.398;2023-11-21T04:43:47;32.42;;;12.93;;
46651;SDS011;32377;52.182;5.398;2023-11-21T04:46:14;32.47;;;14.73;;
46651;SDS011;32377;52.182;5.398;2023-11-21T04:48:39;39.35;;;15.77;;
46651;SDS011;32377;52.182;5.398;2023-11-21T04:51:05;38.83;;;16.70;;
46651;SDS011;32377;52.182;5.398;2023-11-21T04:53:31;41.95;;;19.02;;
46651;SDS011;32377;52.182;5.398;2023-11-21T04:55:57;40.22;;;17.85;;
46651;SDS011;32377;52.182;5.398;2023-11-21T04:58:23;36.70;;;18.17;;
46651;SDS011;32377;52.182;5.398;2023-11-21T05:00:48;41.03;;;18.00;;
46651;SDS011;32377;52.182;5.398;2023-11-21T05:03:14;38.60;;;18.05;;
46651;SDS011;32377;52.182;5.398;2023-11-21T05:05:40;37.00;;;17.35;;
46651;SDS011;32377;52.182;5.398;2023-11-21T05:08:06;41.15;;;19.20;;
46651;SDS011;32377;52.182;5.398;2023-11-21T05:10:33;38.75;;;18.20;;
46651;SDS011;32377;52.182;5.398;2023-11-21T05:12:59;44.50;;;19.10;;
46651;SDS011;32377;52.182;5.398;2023-11-21T05:15:25;39.40;;;17.65;;
46651;SDS011;32377;52.182;5.398;2023-11-21T05:17:52;37.80;;;16.73;;
46651;SDS011;32377;52.182;5.398;2023-11-21T05:20:19;47.05;;;18.02;;
46651;SDS011;32377;52.182;5.398;2023-11-21T05:22:49;37.25;;;17.88;;
46651;SDS011;32377;52.182;5.398;2023-11-21T05:25:15;43.75;;;16.75;;
46651;SDS011;32377;52.182;5.398;2023-11-21T05:27:43;31.65;;;16.05;;
46651;SDS011;32377;52.182;5.398;2023-11-21T05:30:09;40.10;;;16.63;;
46651;SDS011;32377;52.182;5.398;2023-11-21T05:32:37;34.67;;;15.65;;
46651;SDS011;32377;52.182;5.398;2023-11-21T05:35:04;43.63;;;15.98;;
46651;SDS011;32377;52.182;5.398;2023-11-21T05:37:36;37.67;;;16.92;;
46651;SDS011;32377;52.182;5.398;2023-11-21T05:40:04;43.75;;;16.83;;
46651;SDS011;32377;52.182;5.398;2023-11-21T05:42:34;34.47;;;15.73;;
46651;SDS011;32377;52.182;5.398;2023-11-21T05:45:00;45.70;;;16.55;;
46651;SDS011;32377;52.182;5.398;2023-11-21T05:47:40;30.10;;;15.55;;
46651;SDS011;32377;52.182;5.398;2023-11-21T05:50:07;40.40;;;15.88;;
46651;SDS011;32377;52.182;5.398;2023-11-21T05:52:37;39.55;;;16.95;;
46651;SDS011;32377;52.182;5.398;2023-11-21T05:55:04;38.22;;;17.40;;
46651;SDS011;32377;52.182;5.398;2023-11-21T05:57:32;33.63;;;16.27;;
46651;SDS011;32377;52.182;5.398;2023-11-21T05:59:58;44.30;;;16.00;;
46651;SDS011;32377;52.182;5.398;2023-11-21T06:02:24;36.70;;;16.30;;
46651;SDS011;32377;52.182;5.398;2023-11-21T06:04:51;36.13;;;15.65;;
46651;SDS011;32377;52.182;5.398;2023-11-21T06:07:17;37.22;;;16.45;;
46651;SDS011;32377;52.182;5.398;2023-11-21T06:09:43;34.83;;;15.02;;
46651;SDS011;32377;52.182;5.398;2023-11-21T06:12:09;36.08;;;17.73;;
46651;SDS011;32377;52.182;5.398;2023-11-21T06:14:35;33.15;;;15.02;;
46651;SDS011;32377;52.182;5.398;2023-11-21T06:17:01;40.08;;;17.17;;
46651;SDS011;32377;52.182;5.398;2023-11-21T06:19:27;30.02;;;14.70;;
46651;SDS011;32377;52.182;5.398;2023-11-21T06:21:54;42.38;;;15.70;;
46651;SDS011;32377;52.182;5.398;2023-11-21T06:24:20;31.42;;;15.00;;
46651;SDS011;32377;52.182;5.398;2023-11-21T06:26:46;40.88;;;16.02;;
46651;SDS011;32377;52.182;5.398;2023-11-21T06:29:13;37.67;;;15.10;;
46651;SDS011;32377;52.182;5.398;2023-11-21T06:31:40;38.17;;;15.80;;
46651;SDS011;32377;52.182;5.398;2023-11-21T06:34:06;36.10;;;16.08;;
46651;SDS011;32377;52.182;5.398;2023-11-21T06:36:34;44.70;;;16.88;;
46651;SDS011;32377;52.182;5.398;2023-11-21T06:39:00;34.50;;;16.45;;
46651;SDS011;32377;52.182;5.398;2023-11-21T06:41:26;44.60;;;18.00;;
46651;SDS011;32377;52.182;5.398;2023-11-21T06:43:52;32.90;;;15.55;;
46651;SDS011;32377;52.182;5.398;2023-11-21T06:46:18;37.63;;;16.23;;
46651;SDS011;32377;52.182;5.398;2023-11-21T06:48:44;30.50;;;15.48;;
46651;SDS011;32377;52.182;5.398;2023-11-21T06:51:11;30.05;;;14.30;;
46651;SDS011;32377;52.182;5.398;2023-11-21T06:53:38;29.13;;;14.75;;
46651;SDS011;32377;52.182;5.398;2023-11-21T06:56:04;46.63;;;15.88;;
46651;SDS011;32377;52.182;5.398;2023-11-21T06:58:30;41.15;;;16.15;;
46651;SDS011;32377;52.182;5.398;2023-11-21T07:00:56;39.10;;;16.00;;
46651;SDS011;32377;52.182;5.398;2023-11-21T07:03:23;32.22;;;15.13;;
46651;SDS011;32377;52.182;5.398;2023-11-21T07:05:50;34.88;;;15.20;;
46651;SDS011;32377;52.182;5.398;2023-11-21T07:08:16;34.75;;;15.05;;
46651;SDS011;32377;52.182;5.398;2023-11-21T07:10:42;38.63;;;16.10;;
46651;SDS011;32377;52.182;5.398;2023-11-21T07:13:08;29.42;;;14.45;;
46651;SDS011;32377;52.182;5.398;2023-11-21T07:15:37;39.45;;;15.85;;
46651;SDS011;32377;52.182;5.398;2023-11-21T07:18:03;32.50;;;14.18;;
46651;SDS011;32377;52.182;5.398;2023-11-21T07:20:29;30.17;;;15.05;;
46651;SDS011;32377;52.182;5.398;2023-11-21T07:22:55;32.80;;;14.68;;
46651;SDS011;32377;52.182;5.398;2023-11-21T07:25:22;28.25;;;14.02;;
46651;SDS011;32377;52.182;5.398;2023-11-21T07:27:49;34.17;;;13.73;;
46651;SDS011;32377;52.182;5.398;2023-11-21T07:30:15;26.85;;;11.32;;
46651;SDS011;32377;52.182;5.398;2023-11-21T07:32:41;28.98;;;11.95;;
46651;SDS011;32377;52.182;5.398;2023-11-21T07:35:07;31.02;;;11.13;;
46651;SDS011;32377;52.182;5.398;2023-11-21T07:37:33;32.03;;;11.32;;
46651;SDS011;32377;52.182;5.398;2023-11-21T07:39:59;26.92;;;10.55;;
46651;SDS011;32377;52.182;5.398;2023-11-21T07:42:25;34.65;;;10.77;;
46651;SDS011;32377;52.182;5.398;2023-11-21T07:44:51;26.17;;;10.60;;
46651;SDS011;32377;52.182;5.398;2023-11-21T07:47:17;25.45;;;10.18;;
46651;SDS011;32377;52.182;5.398;2023-11-21T07:49:43;25.05;;;10.88;;
46651;SDS011;32377;52.182;5.398;2023-11-21T07:52:10;30.70;;;10.98;;
46651;SDS011;32377;52.182;5.398;2023-11-21T07:54:36;27.73;;;10.48;;
46651;SDS011;32377;52.182;5.398;2023-11-21T07:57:02;24.70;;;9.85;;
46651;SDS011;32377;52.182;5.398;2023-11-21T07:59:29;23.40;;;10.05;;
46651;SDS011;32377;52.182;5.398;2023-11-21T08:01:55;30.42;;;9.45;;
46651;SDS011;32377;52.182;5.398;2023-11-21T08:04:21;32.42;;;10.70;;
46651;SDS011;32377;52.182;5.398;2023-11-21T08:06:48;24.23;;;9.50;;
46651;SDS011;32377;52.182;5.398;2023-11-21T08:09:14;23.88;;;10.05;;
46651;SDS011;32377;52.182;5.398;2023-11-21T08:11:42;22.35;;;9.13;;
46651;SDS011;32377;52.182;5.398;2023-11-21T08:14:08;43.50;;;11.25;;
46651;SDS011;32377;52.182;5.398;2023-11-21T08:16:34;23.42;;;8.98;;
46651;SDS011;32377;52.182;5.398;2023-11-21T08:19:00;20.77;;;9.43;;
46651;SDS011;32377;52.182;5.398;2023-11-21T08:21:27;18.52;;;7.88;;
46651;SDS011;32377;52.182;5.398;2023-11-21T08:23:54;24.05;;;9.48;;
46651;SDS011;32377;52.182;5.398;2023-11-21T08:26:23;20.20;;;8.52;;
46651;SDS011;32377;52.182;5.398;2023-11-21T08:28:49;20.85;;;8.82;;
46651;SDS011;32377;52.182;5.398;2023-11-21T08:31:22;21.58;;;8.65;;
46651;SDS011;32377;52.182;5.398;2023-11-21T08:33:49;18.90;;;8.70;;
46651;SDS011;32377;52.182;5.398;2023-11-21T08:36:15;22.30;;;9.88;;
46651;SDS011;32377;52.182;5.398;2023-11-21T08:38:41;21.42;;;8.63;;
46651;SDS011;32377;52.182;5.398;2023-11-21T08:41:07;28.25;;;9.85;;
46651;SDS011;32377;52.182;5.398;2023-11-21T08:43:34;26.63;;;11.07;;
46651;SDS011;32377;52.182;5.398;2023-11-21T08:46:00;26.75;;;11.82;;
46651;SDS011;32377;52.182;5.398;2023-11-21T08:48:26;32.40;;;11.38;;
46651;SDS011;32377;52.182;5.398;2023-11-21T08:50:54;33.72;;;12.75;;
46651;SDS011;32377;52.182;5.398;2023-11-21T08:53:21;26.58;;;11.82;;
46651;SDS011;32377;52.182;5.398;2023-11-21T08:55:47;31.27;;;11.90;;
46651;SDS011;32377;52.182;5.398;2023-11-21T08:58:15;38.38;;;14.80;;
46651;SDS011;32377;52.182;5.398;2023-11-21T09:00:41;39.08;;;14.13;;
46651;SDS011;32377;52.182;5.398;2023-11-21T09:03:07;34.70;;;14.93;;
46651;SDS011;32377;52.182;5.398;2023-11-21T09:05:33;37.33;;;14.98;;
46651;SDS011;32377;52.182;5.398;2023-11-21T09:07:59;39.13;;;16.27;;
46651;SDS011;32377;52.182;5.398;2023-11-21T09:10:26;41.50;;;17.80;;
46651;SDS011;32377;52.182;5.398;2023-11-21T09:12:53;52.83;;;19.15;;
46651;SDS011;32377;52.182;5.398;2023-11-21T09:15:19;45.35;;;19.75;;
46651;SDS011;32377;52.182;5.398;2023-11-21T09:17:45;46.22;;;20.90;;
46651;SDS011;32377;52.182;5.398;2023-11-21T09:20:11;46.08;;;19.40;;
46651;SDS011;32377;52.182;5.398;2023-11-21T09:22:39;45.70;;;19.67;;
46651;SDS011;32377;52.182;5.398;2023-11-21T09:25:06;40.28;;;18.98;;
46651;SDS011;32377;52.182;5.398;2023-11-21T09:27:33;43.60;;;17.63;;
46651;SDS011;32377;52.182;5.398;2023-11-21T09:30:00;42.63;;;17.77;;
46651;SDS011;32377;52.182;5.398;2023-11-21T09:32:26;38.72;;;16.52;;
46651;SDS011;32377;52.182;5.398;2023-11-21T09:34:52;38.35;;;16.13;;
46651;SDS011;32377;52.182;5.398;2023-11-21T09:37:20;33.42;;;14.27;;
46651;SDS011;32377;52.182;5.398;2023-11-21T09:39:46;35.25;;;15.07;;
46651;SDS011;32377;52.182;5.398;2023-11-21T09:42:13;33.30;;;14.15;;
46651;SDS011;32377;52.182;5.398;2023-11-21T09:44:45;33.53;;;14.02;;
46651;SDS011;32377;52.182;5.398;2023-11-21T09:47:14;37.35;;;15.95;;
46651;SDS011;32377;52.182;5.398;2023-11-21T09:49:41;35.53;;;15.73;;
46651;SDS011;32377;52.182;5.398;2023-11-21T09:52:08;30.60;;;14.60;;
46651;SDS011;32377;52.182;5.398;2023-11-21T09:54:35;37.85;;;15.48;;
46651;SDS011;32377;52.182;5.398;2023-11-21T09:57:01;34.03;;;15.02;;
46651;SDS011;32377;52.182;5.398;2023-11-21T09:59:31;35.83;;;15.05;;
46651;SDS011;32377;52.182;5.398;2023-11-21T10:01:58;33.90;;;14.60;;
46651;SDS011;32377;52.182;5.398;2023-11-21T10:04:24;33.13;;;14.68;;
46651;SDS011;32377;52.182;5.398;2023-11-21T10:06:51;31.15;;;13.57;;
46651;SDS011;32377;52.182;5.398;2023-11-21T10:09:18;31.52;;;12.82;;
46651;SDS011;32377;52.182;5.398;2023-11-21T10:11:45;25.98;;;11.25;;
46651;SDS011;32377;52.182;5.398;2023-11-21T10:14:13;20.50;;;9.88;;
46651;SDS011;32377;52.182;5.398;2023-11-21T10:16:40;28.23;;;10.73;;
46651;SDS011;32377;52.182;5.398;2023-11-21T10:19:09;21.10;;;9.55;;
46651;SDS011;32377;52.182;5.398;2023-11-21T10:21:35;26.35;;;10.90;;
46651;SDS011;32377;52.182;5.398;2023-11-21T10:24:01;26.85;;;10.70;;
46651;SDS011;32377;52.182;5.398;2023-11-21T10:26:28;23.60;;;11.93;;
46651;SDS011;32377;52.182;5.398;2023-11-21T10:29:00;26.40;;;12.77;;
46651;SDS011;32377;52.182;5.398;2023-11-21T10:31:29;26.70;;;11.80;;
46651;SDS011;32377;52.182;5.398;2023-11-21T10:34:14;25.33;;;12.48;;
46651;SDS011;32377;52.182;5.398;2023-11-21T10:36:40;25.60;;;12.35;;
46651;SDS011;32377;52.182;5.398;2023-11-21T10:39:06;26.33;;;13.30;;
46651;SDS011;32377;52.182;5.398;2023-11-21T10:41:33;29.95;;;13.73;;
46651;SDS011;32377;52.182;5.398;2023-11-21T10:44:00;32.85;;;13.77;;
46651;SDS011;32377;52.182;5.398;2023-11-21T10:46:29;30.05;;;14.45;;
46651;SDS011;32377;52.182;5.398;2023-11-21T10:48:55;31.00;;;13.68;;
46651;SDS011;32377;52.182;5.398;2023-11-21T10:51:21;33.40;;;14.77;;
46651;SDS011;32377;52.182;5.398;2023-11-21T10:53:49;35.33;;;16.23;;
46651;SDS011;32377;52.182;5.398;2023-11-21T10:56:16;33.10;;;15.05;;
46651;SDS011;32377;52.182;5.398;2023-11-21T10:58:44;35.30;;;16.42;;
46651;SDS011;32377;52.182;5.398;2023-11-21T11:01:10;33.40;;;15.52;;
46651;SDS011;32377;52.182;5.398;2023-11-21T11:03:39;32.95;;;15.98;;
46651;SDS011;32377;52.182;5.398;2023-11-21T11:06:05;35.08;;;15.98;;
46651;SDS011;32377;52.182;5.398;2023-11-21T11:08:36;30.95;;;15.65;;
46651;SDS011;32377;52.182;5.398;2023-11-21T11:11:03;34.15;;;16.13;;
46651;SDS011;32377;52.182;5.398;2023-11-21T11:13:30;30.85;;;15.80;;
46651;SDS011;32377;52.182;5.398;2023-11-21T11:16:00;32.30;;;15.23;;
46651;SDS011;32377;52.182;5.398;2023-11-21T11:18:32;28.15;;;14.75;;
46651;SDS011;32377;52.182;5.398;2023-11-21T11:21:06;32.08;;;14.68;;
46651;SDS011;32377;52.182;5.398;2023-11-21T11:26:12;26.42;;;13.95;;
46651;SDS011;32377;52.182;5.398;2023-11-21T11:28:53;25.48;;;13.73;;
46651;SDS011;32377;52.182;5.398;2023-11-21T11:34:09;31.13;;;14.65;;
46651;SDS011;32377;52.182;5.398;2023-11-21T11:36:49;29.33;;;14.75;;
46651;SDS011;32377;52.182;5.398;2023-11-21T11:39:26;28.20;;;15.35;;
46651;SDS011;32377;52.182;5.398;2023-11-21T11:41:53;28.08;;;14.70;;
46651;SDS011;32377;52.182;5.398;2023-11-21T11:47:04;29.45;;;15.88;;
46651;SDS011;32377;52.182;5.398;2023-11-21T11:49:38;40.75;;;19.17;;
46651;SDS011;32377;52.182;5.398;2023-11-21T11:52:33;32.55;;;16.48;;
46651;SDS011;32377;52.182;5.398;2023-11-21T11:55:00;33.80;;;16.90;;
46651;SDS011;32377;52.182;5.398;2023-11-21T11:57:26;31.52;;;16.85;;
46651;SDS011;32377;52.182;5.398;2023-11-21T12:00:08;38.33;;;16.90;;
46651;SDS011;32377;52.182;5.398;2023-11-21T12:02:40;37.83;;;18.80;;
46651;SDS011;32377;52.182;5.398;2023-11-21T12:05:13;31.65;;;17.55;;
46651;SDS011;32377;52.182;5.398;2023-11-21T12:07:43;36.83;;;18.70;;
46651;SDS011;32377;52.182;5.398;2023-11-21T12:10:20;33.15;;;17.45;;
46651;SDS011;32377;52.182;5.398;2023-11-21T12:12:51;38.95;;;18.92;;
46651;SDS011;32377;52.182;5.398;2023-11-21T12:15:18;34.60;;;18.00;;
46651;SDS011;32377;52.182;5.398;2023-11-21T12:17:44;40.42;;;18.05;;
46651;SDS011;32377;52.182;5.398;2023-11-21T12:20:14;36.08;;;17.67;;
46651;SDS011;32377;52.182;5.398;2023-11-21T12:22:42;39.75;;;18.60;;
46651;SDS011;32377;52.182;5.398;2023-11-21T12:25:08;34.28;;;17.45;;
46651;SDS011;32377;52.182;5.398;2023-11-21T12:27:34;34.00;;;17.55;;
46651;SDS011;32377;52.182;5.398;2023-11-21T12:30:00;33.22;;;15.25;;
46651;SDS011;32377;52.182;5.398;2023-11-21T12:32:26;29.65;;;15.18;;
46651;SDS011;32377;52.182;5.398;2023-11-21T12:34:52;30.38;;;14.48;;
46651;SDS011;32377;52.182;5.398;2023-11-21T12:37:19;28.25;;;13.73;;
46651;SDS011;32377;52.182;5.398;2023-11-21T12:39:45;27.08;;;13.48;;
46651;SDS011;32377;52.182;5.398;2023-11-21T12:42:11;23.33;;;12.20;;
46651;SDS011;32377;52.182;5.398;2023-11-21T12:44:38;20.33;;;11.25;;
46651;SDS011;32377;52.182;5.398;2023-11-21T12:47:06;20.15;;;10.05;;
46651;SDS011;32377;52.182;5.398;2023-11-21T12:49:33;18.70;;;9.70;;
46651;SDS011;32377;52.182;5.398;2023-11-21T12:51:59;18.98;;;10.10;;
46651;SDS011;32377;52.182;5.398;2023-11-21T12:54:25;18.55;;;9.75;;
46651;SDS011;32377;52.182;5.398;2023-11-21T12:56:51;20.33;;;10.90;;
46651;SDS011;32377;52.182;5.398;2023-11-21T12:59:17;21.20;;;10.98;;
46651;SDS011;32377;52.182;5.398;2023-11-21T13:01:43;16.65;;;9.60;;
46651;SDS011;32377;52.182;5.398;2023-11-21T13:04:11;16.33;;;8.52;;
46651;SDS011;32377;52.182;5.398;2023-11-21T13:06:37;15.73;;;8.45;;
46651;SDS011;32377;52.182;5.398;2023-11-21T13:09:06;12.90;;;6.85;;
46651;SDS011;32377;52.182;5.398;2023-11-21T13:11:36;11.38;;;5.85;;
46651;SDS011;32377;52.182;5.398;2023-11-21T13:14:02;8.55;;;5.03;;
46651;SDS011;32377;52.182;5.398;2023-11-21T13:16:28;8.52;;;4.60;;
46651;SDS011;32377;52.182;5.398;2023-11-21T13:18:56;9.10;;;4.88;;
46651;SDS011;32377;52.182;5.398;2023-11-21T13:21:23;10.68;;;5.72;;
46651;SDS011;32377;52.182;5.398;2023-11-21T13:23:49;13.65;;;5.88;;
46651;SDS011;32377;52.182;5.398;2023-11-21T13:26:17;10.93;;;6.05;;
46651;SDS011;32377;52.182;5.398;2023-11-21T13:28:45;13.32;;;6.05;;
46651;SDS011;32377;52.182;5.398;2023-11-21T13:31:12;12.85;;;6.47;;
46651;SDS011;32377;52.182;5.398;2023-11-21T13:33:57;10.45;;;5.78;;
46651;SDS011;32377;52.182;5.398;2023-11-21T13:36:30;10.57;;;5.97;;
46651;SDS011;32377;52.182;5.398;2023-11-21T13:38:58;10.38;;;5.80;;
46651;SDS011;32377;52.182;5.398;2023-11-21T13:41:29;10.95;;;6.15;;
46651;SDS011;32377;52.182;5.398;2023-11-21T13:43:55;11.35;;;6.70;;
46651;SDS011;32377;52.182;5.398;2023-11-21T13:46:40;15.75;;;7.95;;
46651;SDS011;32377;52.182;5.398;2023-11-21T13:49:06;16.48;;;9.18;;
46651;SDS011;32377;52.182;5.398;2023-11-21T13:51:35;20.20;;;10.40;;
46651;SDS011;32377;52.182;5.398;2023-11-21T13:54:09;21.73;;;11.68;;
46651;SDS011;32377;52.182;5.398;2023-11-21T13:56:38;20.63;;;11.27;;
46651;SDS011;32377;52.182;5.398;2023-11-21T13:59:06;22.95;;;11.93;;
46651;SDS011;32377;52.182;5.398;2023-11-21T14:01:53;23.77;;;11.65;;
46651;SDS011;32377;52.182;5.398;2023-11-21T14:04:20;23.38;;;11.65;;
46651;SDS011;32377;52.182;5.398;2023-11-21T14:07:02;22.02;;;12.30;;
46651;SDS011;32377;52.182;5.398;2023-11-21T14:09:47;25.80;;;12.82;;
46651;SDS011;32377;52.182;5.398;2023-11-21T14:12:14;25.83;;;13.75;;
46651;SDS011;32377;52.182;5.398;2023-11-21T14:14:40;27.55;;;13.27;;
46651;SDS011;32377;52.182;5.398;2023-11-21T14:17:07;28.35;;;14.73;;
46651;SDS011;32377;52.182;5.398;2023-11-21T14:19:34;27.92;;;14.95;;
46651;SDS011;32377;52.182;5.398;2023-11-21T14:22:03;24.40;;;14.27;;
46651;SDS011;32377;52.182;5.398;2023-11-21T14:24:29;28.02;;;14.27;;
46651;SDS011;32377;52.182;5.398;2023-11-21T14:26:57;25.38;;;13.80;;
46651;SDS011;32377;52.182;5.398;2023-11-21T14:29:23;25.85;;;14.48;;
46651;SDS011;32377;52.182;5.398;2023-11-21T14:31:49;28.23;;;14.73;;